createdAt,value
2019-04-26T00:01:04.243Z,15.73
2019-04-26T00:04:06.474Z,11.80
2019-04-26T00:07:08.532Z,12.43
2019-04-26T00:10:13.891Z,13.93
2019-04-26T00:13:20.568Z,13.27
2019-04-26T00:16:33.548Z,12.57
2019-04-26T00:19:35.783Z,12.23
2019-04-26T00:22:37.980Z,11.70
2019-04-26T00:25:39.879Z,12.63
2019-04-26T00:28:41.817Z,12.20
2019-04-26T00:31:43.838Z,12.20
2019-04-26T00:34:45.792Z,13.07
2019-04-26T00:37:47.855Z,11.43
2019-04-26T00:40:50.869Z,10.67
2019-04-26T00:43:53.023Z,11.53
2019-04-26T00:46:56.308Z,12.03
2019-04-26T00:49:58.971Z,11.97
2019-04-26T00:53:01.790Z,12.60
2019-04-26T00:56:05.570Z,12.40
2019-04-26T00:59:09.431Z,13.13
2019-04-26T01:02:14.134Z,11.63
2019-04-26T01:05:17.078Z,11.60
2019-04-26T01:08:19.275Z,11.70
2019-04-26T01:11:21.815Z,13.67
2019-04-26T01:14:24.204Z,11.30
2019-04-26T01:17:26.827Z,13.00
2019-04-26T01:20:31.669Z,11.37
2019-04-26T01:23:37.072Z,12.10
2019-04-26T01:26:39.677Z,12.97
2019-04-26T01:29:44.575Z,11.80
2019-04-26T01:32:47.383Z,11.40
2019-04-26T01:35:50.556Z,14.00
2019-04-26T01:38:56.087Z,12.07
2019-04-26T01:41:59.783Z,11.50
2019-04-26T01:45:11.587Z,11.83
2019-04-26T01:48:35.761Z,12.27
2019-04-26T01:51:53.553Z,13.10
2019-04-26T01:54:55.474Z,14.03
2019-04-26T01:58:01.072Z,12.70
2019-04-26T02:01:08.866Z,12.50
2019-04-26T02:04:11.156Z,13.67
2019-04-26T02:07:15.436Z,13.63
2019-04-26T02:10:20.926Z,14.07
2019-04-26T02:13:24.825Z,13.60
2019-04-26T02:16:27.073Z,14.77
2019-04-26T02:19:31.598Z,12.90
2019-04-26T02:22:49.975Z,15.33
2019-04-26T02:25:52.143Z,14.00
2019-04-26T02:28:54.120Z,13.63
2019-04-26T02:31:59.626Z,13.87
2019-04-26T02:35:01.924Z,13.53
2019-04-26T02:38:03.792Z,12.33
2019-04-26T02:41:06.665Z,13.03
2019-04-26T02:44:11.373Z,12.67
2019-04-26T02:47:47.026Z,12.77
2019-04-26T02:50:56.949Z,12.90
2019-04-26T02:54:17.681Z,13.57
2019-04-26T02:57:23.218Z,12.87
2019-04-26T03:00:25.192Z,13.97
2019-04-26T03:03:30.549Z,13.33
2019-04-26T03:06:36.347Z,14.33
2019-04-26T03:09:41.214Z,13.80
2019-04-26T03:12:45.776Z,14.53
2019-04-26T03:15:55.056Z,15.43
2019-04-26T03:19:08.221Z,16.20
2019-04-26T03:22:35.725Z,12.83
2019-04-26T03:25:42.501Z,12.77
2019-04-26T03:28:54.229Z,14.27
2019-04-26T03:32:06.007Z,13.00
2019-04-26T03:35:25.552Z,14.13
2019-04-26T03:38:51.571Z,13.70
2019-04-26T03:42:19.949Z,14.70
2019-04-26T03:45:36.478Z,13.83
2019-04-26T03:48:59.027Z,14.03
2019-04-26T03:52:07.433Z,15.17
2019-04-26T03:55:26.116Z,12.17
2019-04-26T03:58:57.239Z,12.07
2019-04-26T04:02:13.423Z,12.70
2019-04-26T04:05:20.777Z,13.90
2019-04-26T04:08:26.306Z,13.37
2019-04-26T04:11:49.183Z,13.43
2019-04-26T04:15:15.068Z,13.33
2019-04-26T04:18:22.491Z,11.13
2019-04-26T04:21:33.044Z,10.90
2019-04-26T04:24:42.908Z,10.87
2019-04-26T04:27:49.376Z,11.07
2019-04-26T04:30:58.297Z,10.40
2019-04-26T04:34:12.886Z,10.33
2019-04-26T04:37:17.573Z,10.17
2019-04-26T04:40:58.707Z,12.10
2019-04-26T04:44:17.828Z,11.63
2019-04-26T04:47:37.355Z,11.80
2019-04-26T04:50:46.541Z,11.17
2019-04-26T04:54:00.547Z,10.60
2019-04-26T04:57:22.911Z,9.97
2019-04-26T05:00:36.147Z,10.50
2019-04-26T05:03:48.897Z,12.40
2019-04-26T05:07:04.823Z,9.73
2019-04-26T05:10:22.662Z,10.57
2019-04-26T05:13:34.510Z,9.93
2019-04-26T05:17:13.954Z,10.00
2019-04-26T05:20:37.780Z,10.20
2019-04-26T05:23:58.761Z,10.07
2019-04-26T05:27:21.307Z,8.73
2019-04-26T05:30:34.859Z,9.77
2019-04-26T05:34:06.069Z,10.23
2019-04-26T05:37:30.082Z,8.83
2019-04-26T05:40:41.298Z,9.63
2019-04-26T05:43:56.018Z,8.63
2019-04-26T05:47:27.270Z,11.13
2019-04-26T05:50:50.766Z,9.73
2019-04-26T05:54:38.436Z,10.67
2019-04-26T05:57:58.580Z,8.77
2019-04-26T06:01:51.656Z,9.27
2019-04-26T06:05:25.441Z,8.10
2019-04-26T06:09:08.838Z,10.27
2019-04-26T06:12:19.026Z,9.05
2019-04-26T06:15:41.757Z,9.38
2019-04-26T06:18:52.176Z,8.47
2019-04-26T06:22:02.175Z,8.35
2019-04-26T06:25:27.640Z,8.70
2019-04-26T06:28:37.573Z,8.45
2019-04-26T06:31:46.130Z,7.55
2019-04-26T06:34:55.092Z,7.05
2019-04-26T06:38:43.615Z,9.23
2019-04-26T06:42:09.197Z,7.22
2019-04-26T06:45:40.275Z,7.05
2019-04-26T06:49:12.136Z,7.03
2019-04-26T06:52:17.741Z,7.37
2019-04-26T06:55:23.326Z,6.30
2019-04-26T06:58:44.353Z,6.33
2019-04-26T07:01:49.878Z,6.30
2019-04-26T07:05:15.315Z,6.20
2019-04-26T07:08:26.948Z,7.57
2019-04-26T07:12:02.884Z,6.30
2019-04-26T07:15:28.741Z,6.45
2019-04-26T07:18:33.179Z,7.73
2019-04-26T07:22:11.217Z,7.03
2019-04-26T07:25:24.853Z,7.23
2019-04-26T07:28:50.246Z,5.90
2019-04-26T07:32:15.593Z,6.00
2019-04-26T07:35:30.536Z,7.30
2019-04-26T07:39:10.524Z,6.17
2019-04-26T07:42:45.418Z,6.27
2019-04-26T07:46:10.742Z,7.83
2019-04-26T07:49:28.678Z,7.90
2019-04-26T07:52:59.989Z,6.27
2019-04-26T07:56:05.517Z,5.30
2019-04-26T07:59:43.456Z,6.43
2019-04-26T08:03:02.524Z,5.80
2019-04-26T08:06:16.899Z,5.17
2019-04-26T08:09:27.047Z,5.97
2019-04-26T08:12:29.266Z,6.43
2019-04-26T08:15:42.762Z,6.57
2019-04-26T08:18:55.914Z,4.83
2019-04-26T08:22:14.834Z,6.20
2019-04-26T08:25:08.508Z,5.37
2019-04-26T08:28:14.305Z,6.77
2019-04-26T08:31:21.154Z,5.20
2019-04-26T08:34:29.639Z,5.53
2019-04-26T08:37:46.919Z,6.27
2019-04-26T08:40:49.508Z,5.13
2019-04-26T08:44:11.322Z,6.50
2019-04-26T08:47:35.667Z,7.13
2019-04-26T08:50:42.277Z,5.17
2019-04-26T08:53:45.249Z,4.97
2019-04-26T08:56:50.829Z,5.47
2019-04-26T08:59:56.358Z,4.13
2019-04-26T09:03:11.740Z,4.63
2019-04-26T09:06:17.733Z,4.77
2019-04-26T09:09:25.063Z,6.03
2019-04-26T09:12:30.602Z,4.63
2019-04-26T09:15:52.703Z,4.73
2019-04-26T09:18:59.412Z,5.23
2019-04-26T09:22:12.471Z,5.33
2019-04-26T09:25:07.395Z,5.93
2019-04-26T09:28:17.245Z,4.67
2019-04-26T09:31:24.140Z,5.83
2019-04-26T09:34:27.998Z,5.37
2019-04-26T09:37:29.993Z,7.30
2019-04-26T09:40:31.964Z,5.13
2019-04-26T09:43:35.773Z,4.13
2019-04-26T09:46:39.740Z,4.63
2019-04-26T09:49:59.900Z,5.53
2019-04-26T09:53:01.826Z,5.23
2019-04-26T09:56:03.872Z,5.17
2019-04-26T09:59:06.736Z,4.30
2019-04-26T10:02:09.742Z,4.30
2019-04-26T10:05:13.596Z,5.07
2019-04-26T10:08:15.698Z,4.53
2019-04-26T10:11:19.564Z,4.13
2019-04-26T10:14:29.383Z,5.67
2019-04-26T10:17:33.080Z,5.10
2019-04-26T10:20:37.178Z,4.37
2019-04-26T10:23:39.103Z,5.33
2019-04-26T10:26:41.182Z,3.60
2019-04-26T10:29:44.414Z,5.60
2019-04-26T10:32:46.373Z,4.20
2019-04-26T10:35:48.363Z,5.10
2019-04-26T10:38:54.451Z,4.87
2019-04-26T10:41:56.266Z,4.63
2019-04-26T10:44:58.274Z,5.80
2019-04-26T10:48:00.194Z,4.87
2019-04-26T10:51:03.184Z,5.37
2019-04-26T10:54:07.854Z,4.43
2019-04-26T10:57:23.899Z,5.87
2019-04-26T11:00:48.454Z,5.33
2019-04-26T11:03:48.451Z,3.43
2019-04-26T11:06:50.454Z,4.40
2019-04-26T11:09:52.391Z,4.20
2019-04-26T11:12:54.410Z,3.83
2019-04-26T11:15:56.353Z,5.50
2019-04-26T11:19:01.189Z,6.33
2019-04-26T11:22:03.003Z,4.37
2019-04-26T11:25:05.633Z,4.80
2019-04-26T11:28:07.510Z,6.13
2019-04-26T11:31:09.463Z,7.23
2019-04-26T11:34:11.462Z,4.77
2019-04-26T11:37:17.536Z,5.17
2019-04-26T11:40:17.469Z,3.60
2019-04-26T11:43:20.997Z,3.70
2019-04-26T11:46:29.095Z,4.43
2019-04-26T11:49:27.296Z,4.33
2019-04-26T11:52:32.215Z,3.87
2019-04-26T11:55:33.194Z,4.63
2019-04-26T11:58:35.157Z,4.13
2019-04-26T12:01:40.467Z,4.10
2019-04-26T12:04:49.477Z,4.40
2019-04-26T12:07:51.473Z,3.90
2019-04-26T12:10:54.594Z,3.67
2019-04-26T12:13:59.544Z,4.20
2019-04-26T12:17:01.276Z,3.90
2019-04-26T12:20:06.112Z,4.13
2019-04-26T12:23:08.125Z,5.40
2019-04-26T12:26:10.660Z,3.43
2019-04-26T12:29:14.718Z,4.80
2019-04-26T12:32:17.277Z,4.27
2019-04-26T12:35:19.484Z,3.70
2019-04-26T12:38:24.165Z,4.53
2019-04-26T12:41:39.911Z,4.53
2019-04-26T12:44:32.192Z,4.77
2019-04-26T12:47:38.630Z,4.63
2019-04-26T12:50:40.933Z,4.27
2019-04-26T12:53:42.894Z,4.93
2019-04-26T12:56:44.753Z,4.30
2019-04-26T12:59:46.779Z,3.13
2019-04-26T13:02:50.086Z,4.53
2019-04-26T13:05:57.790Z,6.20
2019-04-26T13:08:56.630Z,3.30
2019-04-26T13:12:03.270Z,3.10
2019-04-26T13:15:55.941Z,3.23
2019-04-26T13:18:57.831Z,3.40
2019-04-26T13:21:59.744Z,3.97
2019-04-26T13:25:02.198Z,3.87
2019-04-26T13:28:04.136Z,3.60
2019-04-26T13:31:06.127Z,3.37
2019-04-26T13:34:08.019Z,3.27
2019-04-26T13:37:09.989Z,3.93
2019-04-26T13:40:12.214Z,3.23
2019-04-26T13:43:14.858Z,3.63
2019-04-26T13:46:35.163Z,3.37
2019-04-26T13:49:39.094Z,3.17
2019-04-26T13:52:41.009Z,3.40
2019-04-26T13:55:43.020Z,3.40
2019-04-26T13:58:44.988Z,4.57
2019-04-26T14:01:46.917Z,3.00
2019-04-26T14:04:48.870Z,3.87
2019-04-26T14:07:50.789Z,3.67
2019-04-26T14:10:52.874Z,4.03
2019-04-26T14:13:55.389Z,5.53
2019-04-26T14:16:59.006Z,4.80
2019-04-26T14:20:00.979Z,3.53
2019-04-26T14:23:04.689Z,3.47
2019-04-26T14:26:20.138Z,2.73
2019-04-26T14:29:22.167Z,3.13
2019-04-26T14:32:24.325Z,3.03
2019-04-26T14:35:26.742Z,3.37
2019-04-26T14:38:35.670Z,3.13
2019-04-26T14:41:32.671Z,2.80
2019-04-26T14:44:34.999Z,3.97
2019-04-26T14:47:46.723Z,3.57
2019-04-26T14:50:40.824Z,2.93
2019-04-26T14:53:42.756Z,2.90
2019-04-26T14:56:52.085Z,2.40
2019-04-26T14:59:50.362Z,2.37
2019-04-26T15:02:57.146Z,2.33
2019-04-26T15:06:00.888Z,3.53
2019-04-26T15:09:16.819Z,2.70
2019-04-26T15:12:14.018Z,2.57
2019-04-26T15:15:14.313Z,2.90
2019-04-26T15:18:16.239Z,2.33
2019-04-26T15:21:18.157Z,2.80
2019-04-26T15:24:20.100Z,2.00
2019-04-26T15:27:22.161Z,2.67
2019-04-26T15:30:24.030Z,2.47
2019-04-26T15:33:26.080Z,2.00
2019-04-26T15:36:27.981Z,9.80
2019-04-26T15:39:33.102Z,3.33
2019-04-26T15:42:36.997Z,2.03
2019-04-26T15:45:43.829Z,2.73
2019-04-26T15:48:54.480Z,2.50
2019-04-26T15:51:59.763Z,2.60
2019-04-26T15:55:04.131Z,2.50
2019-04-26T15:58:08.550Z,3.47
2019-04-26T16:01:10.881Z,2.27
2019-04-26T16:04:13.369Z,2.70
2019-04-26T16:07:27.262Z,2.73
2019-04-26T16:10:25.525Z,3.43
2019-04-26T16:13:24.618Z,3.20
2019-04-26T16:16:29.232Z,4.17
2019-04-26T16:19:30.461Z,3.33
2019-04-26T16:22:33.172Z,3.53
2019-04-26T16:25:38.346Z,4.50
2019-04-26T16:28:44.374Z,3.37
2019-04-26T16:32:05.043Z,3.60
2019-04-26T16:35:07.133Z,3.90
2019-04-26T16:38:27.559Z,3.10
2019-04-26T16:41:35.532Z,3.57
2019-04-26T16:44:33.590Z,4.83
2019-04-26T16:47:45.014Z,4.10
2019-04-26T16:50:44.241Z,3.53
2019-04-26T16:53:58.830Z,4.73
2019-04-26T16:56:47.384Z,3.90
2019-04-26T16:59:56.929Z,3.87
2019-04-26T17:02:53.159Z,3.67
2019-04-26T17:06:04.906Z,4.87
2019-04-26T17:09:01.597Z,3.73
2019-04-26T17:12:02.947Z,3.60
2019-04-26T17:15:06.562Z,3.97
2019-04-26T17:18:08.654Z,4.83
2019-04-26T17:21:12.696Z,4.53
2019-04-26T17:24:33.632Z,4.67
2019-04-26T17:27:35.591Z,3.20
2019-04-26T17:30:41.302Z,3.97
2019-04-26T17:33:41.535Z,4.73
2019-04-26T17:36:46.443Z,4.70
2019-04-26T17:39:51.247Z,5.43
2019-04-26T17:42:51.241Z,3.83
2019-04-26T17:45:53.721Z,5.60
2019-04-26T17:48:55.660Z,4.27
2019-04-26T17:51:58.618Z,4.17
2019-04-26T17:55:01.615Z,4.60
2019-04-26T17:58:11.950Z,5.30
2019-04-26T18:01:12.171Z,5.97
2019-04-26T18:04:14.077Z,4.80
2019-04-26T18:07:39.307Z,5.50
2019-04-26T18:10:20.826Z,5.70
2019-04-26T18:13:23.665Z,4.60
2019-04-26T18:16:29.443Z,5.40
2019-04-26T18:19:49.863Z,4.00
2019-04-26T18:23:05.180Z,5.80
2019-04-26T18:26:06.442Z,4.57
2019-04-26T18:29:08.408Z,4.50
2019-04-26T18:32:10.459Z,4.97
2019-04-26T18:35:16.664Z,4.90
2019-04-26T18:38:17.340Z,6.43
2019-04-26T18:41:23.061Z,5.17
2019-04-26T18:44:35.884Z,5.27
2019-04-26T18:47:29.616Z,4.43
2019-04-26T18:50:34.284Z,4.50
2019-04-26T18:53:41.281Z,6.03
2019-04-26T18:56:46.922Z,5.77
2019-04-26T18:59:51.063Z,6.57
2019-04-26T19:02:55.439Z,6.13
2019-04-26T19:05:58.464Z,5.77
2019-04-26T19:09:05.861Z,6.13
2019-04-26T19:12:11.485Z,6.77
2019-04-26T19:15:40.236Z,5.90
2019-04-26T19:18:44.970Z,5.23
2019-04-26T19:21:54.433Z,6.60
2019-04-26T19:24:57.476Z,6.00
2019-04-26T19:28:06.608Z,7.37
2019-04-26T19:31:03.261Z,4.97
2019-04-26T19:34:06.346Z,6.00
2019-04-26T19:37:08.269Z,6.63
2019-04-26T19:40:12.379Z,8.07
2019-04-26T19:43:28.123Z,7.50
2019-04-26T19:46:25.323Z,6.27
2019-04-26T19:49:43.381Z,6.57
2019-04-26T19:52:57.380Z,6.73
2019-04-26T19:56:17.361Z,6.30
2019-04-26T19:59:21.915Z,8.07
2019-04-26T20:02:26.871Z,8.60
2019-04-26T20:05:29.333Z,7.40
2019-04-26T20:08:35.361Z,8.80
2019-04-26T20:11:38.188Z,8.30
2019-04-26T20:14:49.212Z,6.80
2019-04-26T20:17:52.476Z,6.67
2019-04-26T20:20:52.112Z,7.00
2019-04-26T20:23:55.921Z,8.17
2019-04-26T20:26:57.842Z,6.83
2019-04-26T20:30:03.281Z,7.37
2019-04-26T20:33:05.193Z,8.57
2019-04-26T20:36:08.445Z,10.30
2019-04-26T20:39:12.438Z,7.83
2019-04-26T20:42:14.788Z,7.73
2019-04-26T20:45:17.293Z,7.70
2019-04-26T20:48:19.856Z,11.70
2019-04-26T20:51:24.984Z,11.17
2019-04-26T20:54:27.032Z,9.53
2019-04-26T20:57:38.539Z,9.03
2019-04-26T21:01:06.363Z,8.40
2019-04-26T21:04:09.914Z,8.37
2019-04-26T21:07:14.072Z,10.43
2019-04-26T21:10:21.998Z,11.63
2019-04-26T21:13:23.760Z,10.17
2019-04-26T21:16:24.384Z,9.77
2019-04-26T21:19:27.348Z,10.53
2019-04-26T21:22:31.592Z,9.33
2019-04-26T21:25:35.666Z,11.47
2019-04-26T21:28:42.604Z,10.27
2019-04-26T21:31:47.773Z,11.70
2019-04-26T21:34:53.763Z,9.57
2019-04-26T21:37:57.383Z,8.30
2019-04-26T21:41:14.081Z,7.37
2019-04-26T21:44:16.431Z,7.10
2019-04-26T21:47:18.340Z,8.70
2019-04-26T21:50:20.339Z,6.67
2019-04-26T21:53:24.074Z,7.03
2019-04-26T21:56:26.053Z,7.27
2019-04-26T21:59:27.988Z,7.60
2019-04-26T22:02:34.756Z,7.43
2019-04-26T22:05:35.296Z,6.73
2019-04-26T22:08:43.592Z,7.40
2019-04-26T22:11:49.443Z,6.03
2019-04-26T22:15:03.548Z,6.73
2019-04-26T22:18:10.205Z,9.20
2019-04-26T22:21:29.844Z,8.03
2019-04-26T22:24:38.145Z,8.63
2019-04-26T22:27:40.304Z,10.70
2019-04-26T22:30:42.221Z,9.80
2019-04-26T22:33:44.665Z,9.30
2019-04-26T22:36:46.910Z,11.47
2019-04-26T22:39:48.943Z,10.60
2019-04-26T22:42:54.328Z,10.37
2019-04-26T22:46:04.968Z,11.60
2019-04-26T22:49:08.019Z,11.73
2019-04-26T22:52:11.138Z,14.50
2019-04-26T22:55:17.601Z,13.37
2019-04-26T22:58:20.604Z,14.43
2019-04-26T23:01:22.829Z,14.70
2019-04-26T23:04:26.536Z,14.17
2019-04-26T23:07:29.984Z,15.30
2019-04-26T23:10:36.739Z,15.23
2019-04-26T23:13:41.254Z,16.80
2019-04-26T23:17:08.047Z,21.70
2019-04-26T23:20:25.202Z,18.90
2019-04-26T23:23:28.913Z,20.83
2019-04-26T23:26:30.829Z,20.10
2019-04-26T23:29:33.677Z,18.80
2019-04-26T23:32:35.833Z,18.73
2019-04-26T23:35:43.773Z,18.20
2019-04-26T23:38:41.639Z,16.43
2019-04-26T23:41:44.816Z,16.97
2019-04-26T23:44:46.739Z,15.13
2019-04-26T23:47:48.599Z,13.57
2019-04-26T23:50:50.533Z,15.30
2019-04-26T23:53:55.037Z,14.87
2019-04-26T23:56:57.899Z,14.77
